Time;durP1;ratioP1;P1;durP2;ratioP2;P2;SDS_P1;SDS_P2;PMS_P1;PMS_P2;Temp;Humidity;BMP_temperature;BMP_pressure;BME280_temperature;BME280_humidity;BME280_pressure;Samples;Min_cycle;Max_cycle;Signal;HPM_P1;HPM_P2
2021/09/18 00:01:19;;;;;;;8.17;6.67;;;14.40;99.90;;;;;;5013659;28;20417;-60
2021/09/18 00:03:44;;;;;;;7.07;6.37;;;14.40;99.90;;;;;;5013423;28;20246;-60
2021/09/18 00:06:10;;;;;;;8.00;7.30;;;14.40;99.90;;;;;;5013311;28;20180;-60
2021/09/18 00:08:36;;;;;;;8.70;7.80;;;14.40;99.90;;;;;;5013360;28;20280;-58
2021/09/18 00:11:02;;;;;;;6.90;6.27;;;14.30;99.90;;;;;;5012875;28;20183;-60
2021/09/18 00:13:27;;;;;;;13.00;7.80;;;14.30;99.90;;;;;;5014254;28;20246;-59
2021/09/18 00:15:53;;;;;;;8.57;7.70;;;14.20;99.90;;;;;;5017179;28;20169;-60
2021/09/18 00:18:18;;;;;;;7.97;6.57;;;14.20;99.90;;;;;;5017269;28;20176;-61
2021/09/18 00:20:44;;;;;;;6.63;5.83;;;14.20;99.90;;;;;;5017228;28;20545;-60
2021/09/18 00:23:10;;;;;;;6.13;5.60;;;14.20;99.90;;;;;;5017168;28;20192;-60
2021/09/18 00:25:35;;;;;;;5.83;5.30;;;14.30;99.90;;;;;;5016969;28;20276;-60
2021/09/18 00:28:01;;;;;;;6.83;6.23;;;14.30;99.90;;;;;;5016974;28;20177;-60
2021/09/18 00:30:26;;;;;;;6.80;6.20;;;14.30;99.90;;;;;;5016494;28;20242;-60
2021/09/18 00:32:52;;;;;;;7.23;6.43;;;14.20;99.90;;;;;;5017168;28;20198;-60
2021/09/18 00:35:18;;;;;;;6.60;6.00;;;14.30;99.90;;;;;;5017174;28;20541;-59
2021/09/18 00:37:43;;;;;;;6.60;6.10;;;14.20;99.90;;;;;;5006375;28;20188;-60
2021/09/18 00:40:10;;;;;;;7.67;6.97;;;14.10;99.90;;;;;;5015022;28;20192;-60
2021/09/18 00:42:36;;;;;;;6.80;6.30;;;14.00;99.90;;;;;;5016784;28;20177;-60
2021/09/18 00:45:02;;;;;;;8.57;7.70;;;14.00;99.90;;;;;;5016521;28;20421;-60
2021/09/18 00:47:28;;;;;;;6.90;6.20;;;14.00;99.90;;;;;;5017065;28;20447;-60
2021/09/18 00:49:53;;;;;;;6.57;5.97;;;14.00;99.90;;;;;;5013532;28;20463;-59
2021/09/18 00:52:19;;;;;;;7.87;7.07;;;14.00;99.90;;;;;;5017004;28;20253;-60
2021/09/18 00:54:51;;;;;;;6.33;5.43;;;14.10;99.90;;;;;;5016587;28;20171;-60
2021/09/18 00:57:18;;;;;;;7.43;6.83;;;14.10;99.90;;;;;;5016810;28;20693;-60
2021/09/18 00:59:44;;;;;;;8.90;7.07;;;14.10;99.90;;;;;;5005068;28;20514;-60
2021/09/18 01:02:10;;;;;;;6.43;5.93;;;14.10;99.90;;;;;;4997110;28;20922;-60
2021/09/18 01:04:37;;;;;;;6.53;5.93;;;14.10;99.90;;;;;;4997040;28;20215;-60
2021/09/18 01:07:03;;;;;;;8.33;7.63;;;14.10;99.90;;;;;;5003521;28;20422;-64
2021/09/18 01:09:30;;;;;;;7.30;6.70;;;14.10;99.90;;;;;;5016422;28;20936;-60
2021/09/18 01:11:57;;;;;;;7.03;6.43;;;14.10;99.90;;;;;;5016159;28;20447;-60
2021/09/18 01:14:22;;;;;;;8.23;7.53;;;14.10;99.90;;;;;;5015901;28;20399;-60
2021/09/18 01:16:48;;;;;;;7.53;6.93;;;14.10;99.90;;;;;;5016435;28;20756;-59
2021/09/18 01:19:14;;;;;;;8.63;7.93;;;14.00;99.90;;;;;;5016209;28;20496;-60
2021/09/18 01:21:39;;;;;;;7.77;7.07;;;14.00;99.90;;;;;;5016282;28;20202;-60
2021/09/18 01:24:05;;;;;;;9.00;8.30;;;14.00;99.90;;;;;;5016039;28;20164;-60
2021/09/18 01:26:38;;;;;;;10.10;9.13;;;14.00;99.90;;;;;;5015367;28;20243;-59
2021/09/18 01:29:05;;;;;;;9.00;8.30;;;13.90;99.90;;;;;;5009671;28;20239;-60
2021/09/18 01:31:39;;;;;;;10.67;9.70;;;13.90;99.90;;;;;;4996380;28;20415;-60
2021/09/18 01:34:05;;;;;;;9.47;8.50;;;13.80;99.90;;;;;;4996857;28;20905;-60
2021/09/18 01:36:31;;;;;;;11.23;10.13;;;13.80;99.90;;;;;;4996439;28;20450;-59
2021/09/18 01:38:56;;;;;;;9.20;8.40;;;13.90;99.90;;;;;;4996380;28;20667;-60
2021/09/18 01:41:22;;;;;;;10.37;9.37;;;13.80;99.90;;;;;;4996165;28;20224;-61
2021/09/18 01:43:47;;;;;;;10.23;9.20;;;13.80;99.90;;;;;;4997116;28;20186;-60
2021/09/18 01:46:13;;;;;;;9.17;8.27;;;13.90;99.90;;;;;;4995891;28;20275;-61
2021/09/18 01:48:38;;;;;;;10.10;9.10;;;13.90;99.90;;;;;;4996022;28;20194;-60
2021/09/18 01:51:09;;;;;;;9.40;8.50;;;13.90;99.90;;;;;;4996675;28;20186;-61
2021/09/18 01:53:35;;;;;;;10.20;9.20;;;13.90;99.90;;;;;;4996207;28;20271;-59
2021/09/18 01:56:01;;;;;;;8.53;7.87;;;13.80;99.90;;;;;;4996005;28;20449;-60
2021/09/18 01:58:26;;;;;;;10.50;9.60;;;13.80;99.90;;;;;;4995909;28;20682;-61
2021/09/18 02:01:00;;;;;;;9.83;8.93;;;13.90;99.90;;;;;;4995492;28;20177;-61
2021/09/18 02:03:26;;;;;;;9.83;8.93;;;13.90;99.90;;;;;;4996081;28;20155;-61
2021/09/18 02:05:52;;;;;;;9.13;8.23;;;13.90;99.90;;;;;;4996222;28;20909;-61
2021/09/18 02:08:17;;;;;;;10.07;9.10;;;13.90;99.90;;;;;;4995582;28;20419;-61
2021/09/18 02:10:43;;;;;;;9.07;8.37;;;13.90;99.90;;;;;;4995333;28;20176;-61
2021/09/18 02:13:10;;;;;;;9.07;8.10;;;13.90;99.90;;;;;;4995778;28;20331;-60
2021/09/18 02:15:36;;;;;;;9.10;8.23;;;13.90;99.90;;;;;;4995235;28;20408;-61
2021/09/18 02:18:04;;;;;;;9.70;8.87;;;13.80;99.90;;;;;;4995505;28;20487;-60
2021/09/18 02:20:30;;;;;;;8.63;7.83;;;13.70;99.90;;;;;;4995526;28;20439;-60
2021/09/18 02:22:57;;;;;;;8.90;8.03;;;13.80;99.90;;;;;;4995763;28;20509;-59
2021/09/18 02:25:24;;;;;;;9.20;8.30;;;13.80;99.90;;;;;;4995283;28;20420;-61
2021/09/18 02:27:50;;;;;;;10.40;9.50;;;13.80;99.90;;;;;;4995185;28;20410;-61
2021/09/18 02:30:18;;;;;;;11.77;9.97;;;13.70;99.90;;;;;;4994797;28;20463;-61
2021/09/18 02:32:45;;;;;;;8.90;8.10;;;13.80;99.90;;;;;;4995306;28;20479;-61
2021/09/18 02:35:13;;;;;;;9.37;8.30;;;13.80;99.90;;;;;;4995077;28;20455;-61
2021/09/18 02:37:40;;;;;;;9.60;8.80;;;13.80;99.90;;;;;;4995338;28;20780;-60
2021/09/18 02:40:07;;;;;;;8.90;8.00;;;13.90;99.90;;;;;;4994750;28;20435;-61
2021/09/18 02:42:35;;;;;;;8.63;7.83;;;13.80;99.90;;;;;;4994945;28;20431;-61
2021/09/18 02:45:01;;;;;;;8.17;7.57;;;13.70;99.90;;;;;;4994861;28;20829;-61
2021/09/18 02:47:27;;;;;;;9.33;8.53;;;13.70;99.90;;;;;;4994793;28;20440;-61
2021/09/18 02:49:52;;;;;;;8.20;7.50;;;13.60;99.90;;;;;;4994761;28;20204;-61
2021/09/18 02:52:18;;;;;;;7.90;7.30;;;13.60;99.90;;;;;;4994682;28;20682;-61
2021/09/18 02:54:43;;;;;;;9.23;8.10;;;13.60;99.90;;;;;;4994563;28;20183;-61
2021/09/18 02:57:09;;;;;;;7.10;6.50;;;13.60;99.90;;;;;;4994790;28;20656;-61
2021/09/18 02:59:35;;;;;;;7.13;6.50;;;13.60;99.90;;;;;;4996754;28;20197;-61
2021/09/18 03:02:00;;;;;;;7.27;6.67;;;13.70;99.90;;;;;;4994832;28;20181;-61
2021/09/18 03:04:26;;;;;;;7.87;7.27;;;13.70;99.90;;;;;;4994590;28;20580;-60
2021/09/18 03:06:51;;;;;;;7.67;7.03;;;13.70;99.90;;;;;;4995107;28;20243;-61
2021/09/18 03:09:17;;;;;;;7.60;7.00;;;13.60;99.90;;;;;;4994951;28;20196;-61
2021/09/18 03:11:42;;;;;;;8.53;7.73;;;13.70;99.90;;;;;;4994142;28;20208;-61
2021/09/18 03:14:08;;;;;;;7.80;7.00;;;13.60;99.90;;;;;;4993128;28;20177;-61
2021/09/18 03:16:34;;;;;;;8.50;7.80;;;13.50;99.90;;;;;;4994127;28;20249;-61
2021/09/18 03:18:59;;;;;;;8.83;8.13;;;13.50;99.90;;;;;;4994239;28;20187;-61
2021/09/18 03:21:25;;;;;;;7.93;7.23;;;13.50;99.90;;;;;;4994235;28;20168;-61
2021/09/18 03:23:50;;;;;;;6.50;6.00;;;13.50;99.90;;;;;;4994276;28;20177;-61
2021/09/18 03:26:16;;;;;;;7.00;6.40;;;13.50;99.90;;;;;;4993960;28;20174;-61
2021/09/18 03:31:09;;;;;;;8.77;7.50;;;13.40;99.90;;;;;;5035572;22;20227;-57
2021/09/18 03:33:34;;;;;;;7.20;6.60;;;13.40;99.90;;;;;;5014371;28;20446;-58
2021/09/18 03:36:00;;;;;;;7.70;7.00;;;13.40;99.90;;;;;;5013736;28;20198;-58
2021/09/18 03:38:25;;;;;;;8.30;7.70;;;13.40;99.90;;;;;;5013809;28;20165;-57
2021/09/18 03:40:51;;;;;;;9.70;8.10;;;13.30;99.90;;;;;;5013460;28;20203;-57
2021/09/18 03:43:17;;;;;;;9.37;8.40;;;13.30;99.90;;;;;;5014161;28;20178;-56
2021/09/18 03:45:42;;;;;;;8.53;7.73;;;13.30;99.90;;;;;;5013436;28;20168;-56
2021/09/18 03:48:08;;;;;;;7.70;7.00;;;13.30;99.90;;;;;;5013468;28;20175;-54
2021/09/18 03:50:33;;;;;;;8.43;7.67;;;13.20;99.90;;;;;;5013580;28;20183;-57
2021/09/18 03:52:59;;;;;;;8.33;7.70;;;13.20;99.90;;;;;;5013846;28;20280;-57
2021/09/18 03:55:25;;;;;;;8.77;7.87;;;13.20;99.90;;;;;;5013442;28;20192;-58
2021/09/18 03:57:51;;;;;;;8.27;7.57;;;13.20;99.90;;;;;;4996721;28;20414;-58
2021/09/18 04:00:16;;;;;;;8.80;7.93;;;13.30;99.90;;;;;;5029129;28;20611;-55
2021/09/18 04:02:42;;;;;;;11.60;10.47;;;13.20;99.90;;;;;;5033175;28;20195;-58
2021/09/18 04:05:08;;;;;;;9.20;8.30;;;13.30;99.90;;;;;;5034000;28;20179;-57
2021/09/18 04:07:34;;;;;;;10.70;9.60;;;13.30;99.90;;;;;;5034988;28;20179;-58
2021/09/18 04:09:59;;;;;;;7.60;6.90;;;13.30;99.90;;;;;;5033654;28;20476;-58
2021/09/18 04:12:25;;;;;;;9.37;8.57;;;13.20;99.90;;;;;;5033313;28;20195;-58
2021/09/18 04:14:51;;;;;;;9.53;8.33;;;13.20;99.90;;;;;;5032928;28;20617;-57
2021/09/18 04:17:16;;;;;;;10.13;9.03;;;13.20;99.90;;;;;;5033021;28;20161;-56
2021/09/18 04:19:42;;;;;;;11.17;10.07;;;13.20;99.90;;;;;;5033222;28;20191;-58
2021/09/18 04:22:08;;;;;;;10.90;9.80;;;13.20;99.90;;;;;;5033010;28;20167;-57
2021/09/18 04:24:35;;;;;;;12.00;10.80;;;13.20;99.90;;;;;;5033312;28;20520;-58
2021/09/18 04:27:01;;;;;;;12.90;9.90;;;13.20;99.90;;;;;;5032955;28;20760;-57
2021/09/18 04:29:26;;;;;;;9.17;8.30;;;13.20;99.90;;;;;;5032350;28;20475;-57
2021/09/18 04:31:52;;;;;;;9.90;8.93;;;13.20;99.90;;;;;;5033002;28;20173;-57
2021/09/18 04:34:17;;;;;;;9.83;8.93;;;13.20;99.90;;;;;;5032875;28;20168;-58
2021/09/18 04:36:43;;;;;;;10.97;9.97;;;13.10;99.90;;;;;;5032957;28;20658;-56
2021/09/18 04:39:08;;;;;;;12.70;10.50;;;13.00;99.90;;;;;;5032847;28;20206;-58
2021/09/18 04:41:34;;;;;;;11.50;10.30;;;13.00;99.90;;;;;;5032623;28;20164;-56
2021/09/18 04:43:59;;;;;;;13.63;11.97;;;13.00;99.90;;;;;;5033210;28;20222;-56
2021/09/18 04:46:25;;;;;;;12.10;10.80;;;13.10;99.90;;;;;;5032512;28;20199;-56
2021/09/18 04:48:51;;;;;;;12.00;10.77;;;13.10;99.90;;;;;;5033193;28;20163;-57
2021/09/18 04:51:17;;;;;;;12.83;11.53;;;13.10;99.90;;;;;;5033190;28;20528;-55
2021/09/18 04:53:44;;;;;;;10.93;9.90;;;13.00;99.90;;;;;;5033001;28;20961;-55
2021/09/18 04:56:09;;;;;;;12.60;11.40;;;13.00;99.90;;;;;;5032577;28;20441;-58
2021/09/18 04:58:35;;;;;;;13.40;11.43;;;13.00;99.90;;;;;;5032943;28;20903;-58
2021/09/18 05:01:01;;;;;;;12.50;10.83;;;13.00;99.90;;;;;;5026307;28;20189;-57
2021/09/18 05:03:26;;;;;;;12.07;10.90;;;12.90;99.90;;;;;;5016580;28;20673;-58
2021/09/18 05:05:52;;;;;;;14.00;10.50;;;12.90;99.90;;;;;;5016570;28;20195;-57
2021/09/18 05:08:17;;;;;;;11.50;10.30;;;13.00;99.90;;;;;;5016571;28;20179;-58
2021/09/18 05:10:43;;;;;;;13.87;12.17;;;12.90;99.90;;;;;;5016591;28;20223;-55
2021/09/18 05:13:09;;;;;;;12.80;11.40;;;12.90;99.90;;;;;;5016698;28;20258;-58
2021/09/18 05:15:34;;;;;;;12.37;11.17;;;13.00;99.90;;;;;;5016209;28;20160;-57
2021/09/18 05:18:00;;;;;;;12.00;10.70;;;13.00;99.90;;;;;;5016487;28;20641;-55
2021/09/18 05:20:26;;;;;;;13.33;11.93;;;13.00;99.90;;;;;;5016223;28;20194;-58
2021/09/18 05:22:52;;;;;;;11.33;10.23;;;13.00;99.90;;;;;;5016660;28;20444;-57
2021/09/18 05:25:18;;;;;;;11.23;9.50;;;13.00;99.90;;;;;;5016217;28;20813;-56
2021/09/18 05:27:43;;;;;;;14.00;11.40;;;13.00;99.90;;;;;;5016414;28;20180;-53
2021/09/18 05:30:10;;;;;;;15.57;11.70;;;13.00;99.90;;;;;;5015661;28;20893;-55
2021/09/18 05:32:36;;;;;;;11.03;9.43;;;13.00;99.90;;;;;;5016121;28;20193;-56
2021/09/18 05:35:02;;;;;;;13.30;10.90;;;13.00;99.90;;;;;;5016134;28;20425;-55
2021/09/18 05:37:28;;;;;;;13.17;11.77;;;13.10;99.90;;;;;;5016527;28;20902;-56
2021/09/18 05:39:54;;;;;;;12.67;11.10;;;13.10;99.90;;;;;;5015748;28;20468;-53
2021/09/18 05:42:19;;;;;;;11.80;10.67;;;13.10;99.90;;;;;;5015897;28;20238;-54
2021/09/18 05:44:45;;;;;;;13.10;11.87;;;13.10;99.90;;;;;;5015851;28;20168;-58
2021/09/18 05:47:10;;;;;;;11.23;10.10;;;13.10;99.90;;;;;;5016245;28;20176;-58
2021/09/18 05:49:36;;;;;;;11.90;10.60;;;13.10;99.90;;;;;;5015772;28;20665;-57
2021/09/18 05:52:02;;;;;;;10.03;8.83;;;13.10;99.90;;;;;;5016166;28;20192;-57
2021/09/18 05:54:27;;;;;;;10.33;9.43;;;13.10;99.90;;;;;;5015797;28;20167;-57
2021/09/18 05:56:54;;;;;;;10.83;9.83;;;13.10;99.90;;;;;;5015272;28;20167;-58
2021/09/18 05:59:20;;;;;;;9.50;8.60;;;13.10;99.90;;;;;;5015320;28;20563;-56
2021/09/18 06:01:45;;;;;;;10.73;9.63;;;13.20;99.90;;;;;;5015522;28;20399;-58
2021/09/18 06:04:11;;;;;;;12.23;11.13;;;13.30;99.90;;;;;;5015629;28;20164;-56
2021/09/18 06:06:37;;;;;;;8.97;8.13;;;13.30;99.90;;;;;;5015580;28;20163;-57
2021/09/18 06:09:03;;;;;;;13.30;12.00;;;13.40;99.90;;;;;;5015471;28;20175;-58
2021/09/18 06:11:29;;;;;;;11.00;10.00;;;13.30;99.90;;;;;;5014620;28;20172;-58
2021/09/18 06:13:54;;;;;;;10.83;9.83;;;13.40;99.90;;;;;;5015439;28;20534;-57
2021/09/18 06:16:22;;;;;;;11.80;10.60;;;13.40;99.90;;;;;;5015018;28;20175;-58
2021/09/18 06:18:51;;;;;;;11.43;10.33;;;13.50;99.90;;;;;;5015332;28;20246;-58
2021/09/18 06:21:16;;;;;;;10.30;9.20;;;13.50;99.90;;;;;;5015033;28;20411;-57
2021/09/18 06:23:42;;;;;;;12.73;11.07;;;13.50;99.90;;;;;;5015317;28;20413;-58
2021/09/18 06:26:08;;;;;;;12.70;11.40;;;13.50;99.90;;;;;;5014670;28;20168;-58
2021/09/18 06:28:34;;;;;;;11.30;9.93;;;13.60;99.90;;;;;;5015364;28;20188;-57
2021/09/18 06:31:01;;;;;;;12.17;11.07;;;13.60;99.90;;;;;;5014426;28;20215;-57
2021/09/18 06:33:26;;;;;;;11.00;9.90;;;13.60;99.90;;;;;;5015057;28;20556;-57
2021/09/18 06:35:52;;;;;;;12.47;10.60;;;13.70;99.90;;;;;;5014655;28;20441;-58
2021/09/18 06:38:21;;;;;;;12.73;11.00;;;13.70;99.90;;;;;;5014858;28;20232;-53
2021/09/18 06:40:51;;;;;;;11.97;10.77;;;13.90;99.90;;;;;;5014548;28;20283;-58
2021/09/18 06:43:18;;;;;;;10.43;9.43;;;14.00;99.90;;;;;;5014836;28;20401;-55
2021/09/18 06:45:44;;;;;;;11.33;10.33;;;14.00;99.90;;;;;;5014262;28;20429;-58
2021/09/18 06:48:10;;;;;;;11.67;10.50;;;14.00;99.90;;;;;;5014497;28;21035;-57
2021/09/18 06:50:37;;;;;;;10.17;9.17;;;14.10;99.90;;;;;;5015783;28;20245;-58
2021/09/18 06:53:04;;;;;;;10.93;9.93;;;14.20;99.90;;;;;;5023699;28;20450;-56
2021/09/18 06:55:30;;;;;;;11.00;9.30;;;14.20;99.90;;;;;;5034159;28;20401;-57
2021/09/18 06:57:56;;;;;;;10.07;9.20;;;14.40;99.90;;;;;;5034109;28;20809;-58
2021/09/18 07:00:21;;;;;;;10.73;9.80;;;14.50;99.90;;;;;;5033612;28;20477;-57
2021/09/18 07:02:47;;;;;;;11.47;10.27;;;14.60;99.90;;;;;;5034215;28;20178;-56
2021/09/18 07:05:13;;;;;;;11.37;9.70;;;14.70;99.90;;;;;;5022509;28;20180;-54
2021/09/18 07:07:39;;;;;;;10.90;9.90;;;14.70;99.90;;;;;;5014758;28;20248;-56
2021/09/18 07:10:05;;;;;;;13.50;12.07;;;14.90;99.90;;;;;;5014966;28;20433;-59
2021/09/18 07:12:31;;;;;;;11.53;10.43;;;15.00;99.90;;;;;;5014699;28;20297;-58
2021/09/18 07:14:56;;;;;;;11.53;10.43;;;15.10;99.90;;;;;;5013871;28;20407;-58
2021/09/18 07:17:22;;;;;;;9.97;9.13;;;15.30;99.90;;;;;;5014461;28;20577;-58
2021/09/18 07:19:47;;;;;;;10.80;9.80;;;15.40;99.90;;;;;;5014167;28;20272;-58
2021/09/18 07:22:13;;;;;;;10.90;9.90;;;15.50;99.90;;;;;;5014069;28;20172;-59
2021/09/18 07:24:39;;;;;;;10.77;9.63;;;15.60;99.90;;;;;;5013359;28;20176;-57
2021/09/18 07:27:04;;;;;;;10.50;9.50;;;15.70;99.90;;;;;;5013866;28;20176;-58
2021/09/18 07:29:30;;;;;;;13.20;10.17;;;15.80;99.90;;;;;;5013745;28;20219;-59
2021/09/18 07:31:55;;;;;;;13.07;11.80;;;15.90;99.90;;;;;;5013447;28;20163;-59
2021/09/18 07:34:22;;;;;;;11.80;10.77;;;15.90;99.90;;;;;;5013745;28;20540;-57
2021/09/18 07:36:48;;;;;;;12.93;11.37;;;16.00;99.90;;;;;;5013669;28;20174;-57
2021/09/18 07:39:14;;;;;;;11.80;10.50;;;16.10;99.90;;;;;;5013721;28;20425;-58
2021/09/18 07:41:40;;;;;;;15.27;11.00;;;16.20;99.90;;;;;;5013483;28;20414;-58
2021/09/18 07:44:07;;;;;;;11.77;10.60;;;16.30;99.90;;;;;;5013874;28;20176;-55
2021/09/18 07:46:33;;;;;;;10.00;9.20;;;16.40;99.90;;;;;;5013616;28;20413;-56
2021/09/18 07:48:59;;;;;;;10.60;9.63;;;16.50;99.90;;;;;;5014000;28;20428;-58
2021/09/18 07:51:26;;;;;;;11.60;10.50;;;16.60;99.90;;;;;;5014026;28;20829;-57
2021/09/18 07:53:51;;;;;;;10.97;9.87;;;16.60;99.90;;;;;;5013535;28;20812;-56
2021/09/18 07:56:17;;;;;;;11.40;10.30;;;16.80;99.90;;;;;;5013405;28;20918;-55
2021/09/18 07:58:43;;;;;;;11.67;10.67;;;16.90;99.90;;;;;;4995880;28;20166;-56
2021/09/18 08:01:09;;;;;;;13.47;12.13;;;16.90;99.90;;;;;;5013094;28;20429;-58
2021/09/18 08:03:34;;;;;;;11.97;10.97;;;16.90;99.90;;;;;;5013840;28;20456;-56
2021/09/18 08:06:00;;;;;;;12.70;11.40;;;16.80;99.90;;;;;;5013440;28;20173;-58
2021/09/18 08:08:26;;;;;;;11.70;10.50;;;17.00;99.90;;;;;;5013573;28;20210;-53
2021/09/18 08:10:52;;;;;;;11.93;10.77;;;17.10;99.90;;;;;;5013463;28;20198;-57
2021/09/18 08:13:17;;;;;;;11.00;10.00;;;17.10;99.90;;;;;;5013395;28;20197;-58
2021/09/18 08:15:43;;;;;;;12.83;11.47;;;17.30;99.90;;;;;;5013422;28;20410;-58
2021/09/18 08:18:09;;;;;;;12.17;10.87;;;17.30;99.90;;;;;;5013590;28;20538;-58
2021/09/18 08:20:34;;;;;;;11.20;10.20;;;17.40;99.90;;;;;;5015895;28;20210;-58
2021/09/18 08:23:00;;;;;;;11.80;10.70;;;17.20;99.90;;;;;;5023288;28;20184;-57
2021/09/18 08:25:27;;;;;;;11.93;9.90;;;17.30;99.90;;;;;;5013498;28;20202;-58
2021/09/18 08:27:52;;;;;;;10.93;9.93;;;17.20;99.90;;;;;;4995627;28;20418;-57
2021/09/18 08:30:18;;;;;;;9.90;9.10;;;17.10;99.90;;;;;;5024408;28;20452;-57
2021/09/18 08:32:44;;;;;;;10.43;9.53;;;17.20;99.90;;;;;;5032820;28;20269;-57
2021/09/18 08:35:11;;;;;;;10.33;9.20;;;17.10;99.90;;;;;;5035348;28;20409;-54
2021/09/18 08:37:37;;;;;;;10.57;9.37;;;17.30;99.90;;;;;;5036759;28;20167;-58
2021/09/18 08:40:05;;;;;;;10.87;9.10;;;17.40;99.90;;;;;;5036857;28;20455;-58
2021/09/18 08:42:31;;;;;;;9.80;8.90;;;17.50;99.90;;;;;;5036576;28;20401;-57
2021/09/18 08:44:56;;;;;;;8.80;8.00;;;17.60;99.90;;;;;;5036338;28;20454;-59
2021/09/18 08:47:24;;;;;;;8.63;7.73;;;17.70;99.90;;;;;;5036852;28;20898;-55
2021/09/18 08:49:50;;;;;;;8.97;8.17;;;17.70;99.90;;;;;;5036516;28;20189;-58
2021/09/18 08:52:16;;;;;;;9.33;8.50;;;17.80;99.90;;;;;;5036583;28;20449;-55
2021/09/18 08:54:42;;;;;;;9.43;8.10;;;17.90;99.90;;;;;;5036627;28;20405;-53
2021/09/18 08:57:10;;;;;;;9.03;8.10;;;18.00;99.90;;;;;;5036170;28;20537;-53
2021/09/18 08:59:37;;;;;;;8.40;7.70;;;18.00;99.90;;;;;;5036134;28;20422;-57
2021/09/18 09:02:18;;;;;;;9.87;8.30;;;18.00;99.90;;;;;;5036099;28;20450;-57
2021/09/18 09:04:45;;;;;;;12.33;8.80;;;18.10;99.90;;;;;;5036205;28;20472;-54
2021/09/18 09:07:13;;;;;;;9.97;8.47;;;18.20;99.90;;;;;;5036165;28;20428;-57
2021/09/18 09:10:02;;;;;;;10.10;7.80;;;18.20;99.90;;;;;;5036268;28;20422;-57
2021/09/18 09:12:29;;;;;;;8.20;7.50;;;18.20;99.90;;;;;;5034595;28;20590;-56
2021/09/18 09:14:57;;;;;;;9.63;7.63;;;18.30;99.90;;;;;;5035821;28;20410;-56
2021/09/18 09:17:30;;;;;;;8.17;7.37;;;18.50;99.90;;;;;;5036312;28;20403;-57
2021/09/18 09:19:57;;;;;;;8.83;8.03;;;18.70;99.90;;;;;;5036953;28;20503;-57
2021/09/18 09:22:44;;;;;;;8.10;7.40;;;18.80;99.90;;;;;;5037089;28;20402;-56
2021/09/18 09:25:31;;;;;;;9.33;8.40;;;19.00;99.90;;;;;;5036203;28;20509;-57
2021/09/18 09:27:59;;;;;;;9.00;7.40;;;18.90;99.90;;;;;;5035948;28;20933;-57
2021/09/18 09:30:33;;;;;;;8.80;8.00;;;19.00;99.90;;;;;;5058707;23;20493;-60
2021/09/18 09:33:07;;;;;;;9.87;7.93;;;19.10;99.90;;;;;;5035510;28;20445;-60
2021/09/18 09:35:34;;;;;;;8.10;7.40;;;19.20;99.90;;;;;;5035604;28;20893;-59
2021/09/18 09:37:59;;;;;;;8.27;7.57;;;19.30;99.90;;;;;;5035825;28;20402;-59
2021/09/18 09:40:39;;;;;;;7.40;6.80;;;19.30;99.90;;;;;;5035169;28;20751;-59
2021/09/18 09:43:07;;;;;;;7.03;6.43;;;19.50;99.90;;;;;;5035454;28;20179;-60
2021/09/18 09:45:33;;;;;;;5.90;5.30;;;19.60;99.90;;;;;;5034907;28;20477;-59
2021/09/18 09:48:11;;;;;;;5.90;5.33;;;19.80;99.90;;;;;;5035237;28;20406;-60
2021/09/18 09:50:39;;;;;;;7.13;4.70;;;20.00;99.90;;;;;;5034968;28;20449;-60
2021/09/18 09:53:07;;;;;;;5.30;4.10;;;20.10;99.90;;;;;;5017300;28;20446;-59
2021/09/18 09:55:37;;;;;;;4.13;3.83;;;20.40;99.90;;;;;;5017391;28;20417;-59
2021/09/18 09:58:09;;;;;;;2.87;2.67;;;20.60;99.90;;;;;;5034896;28;20398;-60
2021/09/18 10:00:39;;;;;;;3.23;3.03;;;20.40;99.90;;;;;;5034843;28;20508;-60
2021/09/18 10:03:05;;;;;;;3.17;2.90;;;20.40;99.90;;;;;;5035571;28;20868;-60
2021/09/18 10:05:31;;;;;;;2.10;1.90;;;20.30;99.90;;;;;;5035116;28;20434;-60
2021/09/18 10:07:59;;;;;;;2.57;2.37;;;20.30;99.90;;;;;;5034939;28;20764;-60
2021/09/18 10:10:25;;;;;;;4.23;2.20;;;20.10;99.90;;;;;;5035063;28;20426;-60
2021/09/18 10:12:53;;;;;;;3.63;2.43;;;20.10;99.90;;;;;;5034474;28;20446;-60
2021/09/18 10:15:19;;;;;;;2.87;2.67;;;20.20;99.90;;;;;;5034658;28;20393;-60
2021/09/18 10:17:48;;;;;;;3.27;2.50;;;20.40;99.90;;;;;;5034979;28;20460;-60
2021/09/18 10:23:18;;;;;;;4.60;2.03;;;20.60;99.90;;;;;;5006580;28;20411;-60
2021/09/18 10:25:49;;;;;;;3.40;1.70;;;20.90;99.90;;;;;;5035030;28;20382;-60
2021/09/18 10:28:17;;;;;;;1.80;1.70;;;20.90;99.90;;;;;;5034633;28;20395;-60
2021/09/18 10:30:48;;;;;;;1.70;1.60;;;20.90;99.50;;;;;;5034114;28;20464;-60
2021/09/18 10:33:44;;;;;;;2.10;1.90;;;21.00;99.30;;;;;;5035027;28;20798;-60
2021/09/18 10:36:22;;;;;;;1.77;1.67;;;21.10;98.70;;;;;;5034816;28;20382;-59
2021/09/18 10:38:51;;;;;;;1.80;1.70;;;21.20;98.40;;;;;;5034690;28;20382;-61
2021/09/18 10:41:26;;;;;;;2.10;1.90;;;21.40;98.60;;;;;;5033953;28;20417;-61
2021/09/18 10:44:00;;;;;;;2.23;2.00;;;22.00;98.00;;;;;;5034217;28;20448;-61
2021/09/18 10:46:46;;;;;;;2.50;2.30;;;23.20;97.30;;;;;;5034162;28;20387;-61
2021/09/18 10:49:43;;;;;;;3.53;2.57;;;24.60;94.70;;;;;;5034360;28;20840;-61
2021/09/18 10:52:20;;;;;;;1.93;1.83;;;25.60;92.80;;;;;;5034394;28;20382;-61
2021/09/18 10:55:10;;;;;;;1.70;1.60;;;24.60;88.10;;;;;;5034545;28;20404;-61
2021/09/18 10:57:38;;;;;;;2.30;2.10;;;24.20;92.20;;;;;;5015396;28;20821;-60
2021/09/18 11:00:05;;;;;;;2.50;2.17;;;23.70;92.50;;;;;;5033400;28;20460;-60
2021/09/18 11:02:30;;;;;;;2.80;2.60;;;23.30;94.00;;;;;;5034072;28;20414;-61
2021/09/18 11:04:57;;;;;;;4.00;3.70;;;23.50;95.30;;;;;;5033866;28;20780;-59
2021/09/18 11:07:41;;;;;;;3.53;3.10;;;24.30;95.60;;;;;;5033938;28;20179;-61
2021/09/18 11:10:08;;;;;;;4.10;3.60;;;26.00;94.20;;;;;;5020870;28;20574;-61
2021/09/18 11:12:35;;;;;;;3.70;3.10;;;27.30;91.30;;;;;;5013438;28;20939;-61
2021/09/18 11:15:07;;;;;;;3.30;3.00;;;28.50;88.70;;;;;;5018577;28;20793;-60
2021/09/18 11:17:34;;;;;;;2.97;2.67;;;29.00;85.70;;;;;;5032169;28;20991;-62
2021/09/18 11:20:17;;;;;;;4.97;4.47;;;30.00;80.70;;;;;;5033844;28;20789;-61
2021/09/18 11:22:44;;;;;;;3.30;3.00;;;30.10;78.20;;;;;;5033887;28;20413;-61
2021/09/18 11:25:30;;;;;;;4.00;3.70;;;30.50;79.50;;;;;;5033816;28;20413;-60
2021/09/18 11:28:09;;;;;;;3.80;3.50;;;30.20;74.80;;;;;;5033463;28;20402;-60
2021/09/18 11:30:53;;;;;;;3.60;3.30;;;29.60;74.40;;;;;;5033475;28;20503;-60
2021/09/18 11:33:21;;;;;;;4.17;3.87;;;29.00;78.00;;;;;;5033721;28;20442;-60
2021/09/18 11:35:56;;;;;;;3.97;3.67;;;29.70;74.80;;;;;;5034029;28;20405;-61
2021/09/18 11:38:29;;;;;;;4.07;3.77;;;29.00;75.50;;;;;;5033330;28;20389;-61
2021/09/18 11:41:08;;;;;;;3.87;3.57;;;28.60;77.30;;;;;;5033462;28;20818;-61
2021/09/18 11:43:35;;;;;;;4.07;3.77;;;29.80;78.60;;;;;;5033404;28;20406;-61
2021/09/18 11:46:01;;;;;;;4.00;3.70;;;30.30;72.60;;;;;;5032897;28;20434;-61
2021/09/18 11:48:29;;;;;;;3.33;3.10;;;30.40;71.50;;;;;;5033726;28;20399;-61
2021/09/18 11:50:55;;;;;;;2.60;2.40;;;31.50;68.90;;;;;;5033356;28;20848;-61
2021/09/18 11:53:21;;;;;;;2.70;2.30;;;32.90;66.20;;;;;;5033071;28;20454;-61
2021/09/18 11:55:51;;;;;;;3.33;3.13;;;33.70;61.50;;;;;;5033304;28;20441;-61
2021/09/18 11:58:24;;;;;;;2.40;2.20;;;31.50;63.50;;;;;;5015339;28;20409;-61
2021/09/18 12:00:52;;;;;;;2.50;2.30;;;32.30;61.50;;;;;;5032820;28;20444;-61
2021/09/18 12:03:28;;;;;;;3.60;2.47;;;31.50;60.00;;;;;;5033034;28;20778;-61
2021/09/18 12:05:58;;;;;;;2.87;2.67;;;31.00;61.70;;;;;;5033202;28;20390;-61
2021/09/18 12:08:26;;;;;;;2.73;2.53;;;31.20;61.10;;;;;;5033077;28;20398;-61
2021/09/18 12:11:08;;;;;;;3.33;2.70;;;31.50;60.40;;;;;;5036711;28;20425;-61
2021/09/18 12:13:47;;;;;;;2.63;2.40;;;31.20;61.20;;;;;;5037274;28;20849;-61
2021/09/18 12:16:14;;;;;;;2.83;2.63;;;32.10;60.80;;;;;;5037181;28;20382;-60
2021/09/18 12:18:42;;;;;;;2.90;2.70;;;31.00;59.90;;;;;;5036956;28;20413;-61
2021/09/18 12:21:33;;;;;;;3.30;3.10;;;31.40;61.40;;;;;;5036750;28;20422;-61
2021/09/18 12:24:01;;;;;;;3.17;2.93;;;31.80;59.30;;;;;;5036951;28;20404;-62
2021/09/18 12:26:32;;;;;;;2.73;2.53;;;32.00;58.80;;;;;;5037187;28;20843;-62
2021/09/18 12:29:09;;;;;;;3.17;2.87;;;32.90;57.80;;;;;;5036802;28;20481;-62
2021/09/18 12:31:36;;;;;;;2.37;2.27;;;33.70;56.20;;;;;;5036415;28;20511;-61
2021/09/18 12:34:13;;;;;;;3.00;2.80;;;34.70;54.90;;;;;;5036834;28;20809;-62
2021/09/18 12:36:39;;;;;;;3.87;3.57;;;33.60;55.00;;;;;;5036899;28;20755;-61
2021/09/18 12:39:06;;;;;;;3.40;3.20;;;31.40;58.20;;;;;;5036705;28;20402;-61
2021/09/18 12:41:34;;;;;;;4.30;2.97;;;31.00;61.00;;;;;;5036469;28;20549;-61
2021/09/18 12:44:06;;;;;;;3.23;3.03;;;30.60;61.50;;;;;;5036747;28;20886;-62
2021/09/18 12:46:46;;;;;;;3.87;3.57;;;32.30;60.30;;;;;;5036389;28;20410;-61
2021/09/18 12:49:13;;;;;;;4.00;3.70;;;33.00;59.10;;;;;;5036474;28;20402;-62